Time;durP1;ratioP1;P1;durP2;ratioP2;P2;SDS_P1;SDS_P2;PMS_P1;PMS_P2;Temp;Humidity;BMP_temperature;BMP_pressure;BME280_temperature;BME280_humidity;BME280_pressure;Samples;Min_cycle;Max_cycle;Signal;HPM_P1;HPM_P2
2023/12/17 00:01:13;;;;;;;40.40;16.67;;;9.50;99.90;;;;;;4991620;28;20031;-69
2023/12/17 00:03:39;;;;;;;38.83;18.77;;;9.50;99.90;;;;;;4992006;28;20145;-69
2023/12/17 00:06:05;;;;;;;42.30;18.88;;;9.50;99.90;;;;;;4992562;28;20077;-69
2023/12/17 00:08:30;;;;;;;40.20;18.75;;;9.50;99.90;;;;;;4992006;28;20502;-69
2023/12/17 00:10:57;;;;;;;43.22;19.13;;;9.50;99.90;;;;;;4991851;28;20058;-70
2023/12/17 00:13:24;;;;;;;39.72;19.10;;;9.50;99.90;;;;;;4991819;28;20023;-70
2023/12/17 00:15:50;;;;;;;38.40;17.85;;;9.50;99.90;;;;;;4992238;28;20085;-71
2023/12/17 00:18:15;;;;;;;40.65;18.60;;;9.50;99.90;;;;;;4992006;28;20030;-69
2023/12/17 00:20:41;;;;;;;41.58;18.98;;;9.50;99.90;;;;;;4990088;28;20033;-69
2023/12/17 00:23:07;;;;;;;40.22;18.23;;;9.60;99.90;;;;;;4992083;28;20023;-68
2023/12/17 00:25:32;;;;;;;37.63;17.60;;;9.60;99.90;;;;;;4991731;28;20034;-70
2023/12/17 00:27:58;;;;;;;36.50;17.88;;;9.60;99.90;;;;;;4991207;28;20114;-70
2023/12/17 00:30:23;;;;;;;37.15;17.17;;;9.60;99.90;;;;;;4991915;28;20074;-70
2023/12/17 00:32:49;;;;;;;39.20;16.95;;;9.60;99.90;;;;;;4991739;28;20034;-69
2023/12/17 00:35:15;;;;;;;34.92;15.98;;;9.60;99.90;;;;;;4991763;28;20077;-69
2023/12/17 00:37:40;;;;;;;30.80;15.27;;;9.60;99.90;;;;;;4991082;28;20026;-70
2023/12/17 00:40:07;;;;;;;32.70;15.95;;;9.60;99.90;;;;;;4991729;28;20054;-69
2023/12/17 00:42:33;;;;;;;28.90;14.73;;;9.60;99.90;;;;;;4991822;28;20023;-70
2023/12/17 00:44:58;;;;;;;29.58;14.65;;;9.60;99.90;;;;;;4991682;28;20030;-71
2023/12/17 00:47:24;;;;;;;31.95;15.80;;;9.70;99.90;;;;;;4991994;28;20053;-71
2023/12/17 00:49:50;;;;;;;34.70;16.38;;;9.70;99.90;;;;;;4991671;28;20054;-70
2023/12/17 00:52:16;;;;;;;32.10;15.20;;;9.60;99.90;;;;;;4991622;28;20022;-69
2023/12/17 00:54:41;;;;;;;34.78;15.80;;;9.70;99.90;;;;;;4991247;28;20047;-68
2023/12/17 00:57:07;;;;;;;29.95;14.80;;;9.70;99.90;;;;;;4991396;28;20034;-69
2023/12/17 00:59:32;;;;;;;30.85;15.23;;;9.70;99.90;;;;;;4991704;28;20037;-71
2023/12/17 01:01:58;;;;;;;28.65;13.88;;;9.70;99.90;;;;;;4991642;28;20030;-72
2023/12/17 01:04:23;;;;;;;29.90;14.05;;;9.70;99.90;;;;;;4991529;28;20041;-69
2023/12/17 01:06:49;;;;;;;30.58;14.40;;;9.70;99.90;;;;;;4991006;28;20054;-69
2023/12/17 01:09:15;;;;;;;27.25;14.32;;;9.70;99.90;;;;;;4991611;28;20027;-70
2023/12/17 01:11:42;;;;;;;30.63;14.52;;;9.70;99.90;;;;;;4991657;28;20097;-69
2023/12/17 01:14:07;;;;;;;31.38;15.30;;;9.70;99.90;;;;;;4991320;28;20037;-70
2023/12/17 01:16:33;;;;;;;29.98;15.15;;;9.70;99.90;;;;;;4991421;28;20082;-68
2023/12/17 01:18:59;;;;;;;31.80;15.00;;;9.70;99.90;;;;;;4991621;28;20050;-70
2023/12/17 01:21:24;;;;;;;23.63;13.43;;;9.70;99.90;;;;;;4991270;28;20088;-68
2023/12/17 01:23:50;;;;;;;32.63;13.98;;;9.70;99.90;;;;;;4991178;28;20034;-70
2023/12/17 01:26:22;;;;;;;30.35;13.40;;;9.70;99.90;;;;;;4990136;28;20085;-69
2023/12/17 01:28:51;;;;;;;26.55;14.00;;;9.70;99.90;;;;;;4991210;28;20027;-67
2023/12/17 01:31:17;;;;;;;26.88;13.48;;;9.70;99.90;;;;;;4990931;28;20089;-67
2023/12/17 01:33:42;;;;;;;26.50;11.93;;;9.70;99.90;;;;;;4991225;28;20022;-70
2023/12/17 01:36:08;;;;;;;22.08;12.48;;;9.80;99.90;;;;;;4991406;28;20073;-69
2023/12/17 01:38:34;;;;;;;24.98;12.75;;;9.70;99.90;;;;;;4990636;28;20038;-69
2023/12/17 01:40:59;;;;;;;27.48;11.50;;;9.70;99.90;;;;;;4991164;28;20087;-70
2023/12/17 01:43:25;;;;;;;20.70;10.60;;;9.80;99.90;;;;;;4991095;28;20034;-70
2023/12/17 01:45:53;;;;;;;22.02;10.82;;;9.80;99.90;;;;;;4989658;28;20045;-70
2023/12/17 01:48:20;;;;;;;21.05;11.30;;;9.80;99.90;;;;;;4990935;28;20018;-71
2023/12/17 01:50:46;;;;;;;24.67;11.30;;;9.80;99.90;;;;;;4992764;28;20047;-70
2023/12/17 01:53:12;;;;;;;20.80;10.52;;;9.80;99.90;;;;;;4994378;28;20046;-69
2023/12/17 01:55:39;;;;;;;18.02;9.93;;;9.80;99.90;;;;;;4992918;28;20113;-68
2023/12/17 01:58:05;;;;;;;19.38;9.50;;;9.80;99.90;;;;;;4994671;28;20078;-69
2023/12/17 02:00:30;;;;;;;24.20;11.48;;;9.80;99.90;;;;;;4994496;28;20073;-70
2023/12/17 02:02:56;;;;;;;21.33;9.73;;;9.80;99.90;;;;;;4993147;28;20068;-69
2023/12/17 02:05:21;;;;;;;21.90;10.65;;;9.80;99.90;;;;;;4993842;28;20058;-71
2023/12/17 02:07:47;;;;;;;25.88;10.68;;;9.80;99.90;;;;;;4994685;28;20035;-69
2023/12/17 02:10:16;;;;;;;28.25;10.85;;;9.80;99.90;;;;;;4993864;28;20050;-69
2023/12/17 02:12:42;;;;;;;22.95;11.07;;;9.80;99.90;;;;;;4994354;28;20073;-70
2023/12/17 02:15:08;;;;;;;25.10;11.27;;;9.80;99.90;;;;;;4991253;28;20521;-69
2023/12/17 02:17:33;;;;;;;18.40;11.20;;;9.80;99.90;;;;;;4993511;28;20102;-70
2023/12/17 02:19:59;;;;;;;19.60;11.27;;;9.80;99.90;;;;;;4993410;28;20098;-72
2023/12/17 02:22:26;;;;;;;26.50;10.95;;;9.80;99.90;;;;;;4994168;28;20022;-71
2023/12/17 02:24:52;;;;;;;19.80;10.68;;;9.80;99.90;;;;;;4993693;28;20034;-70
2023/12/17 02:27:26;;;;;;;27.25;11.73;;;9.80;99.90;;;;;;4993993;28;20041;-69
2023/12/17 02:29:53;;;;;;;21.17;11.90;;;9.80;99.90;;;;;;4992859;28;20147;-72
2023/12/17 02:32:20;;;;;;;25.20;12.90;;;9.80;99.90;;;;;;4993462;28;20034;-68
2023/12/17 02:34:46;;;;;;;21.88;10.95;;;9.80;99.90;;;;;;4994024;28;20094;-69
2023/12/17 02:37:12;;;;;;;18.17;10.25;;;9.80;99.90;;;;;;4993664;28;20027;-67
2023/12/17 02:39:38;;;;;;;20.15;10.68;;;9.80;99.90;;;;;;4993868;28;20082;-67
2023/12/17 02:42:04;;;;;;;24.30;10.25;;;9.80;99.90;;;;;;4993914;28;20033;-69
2023/12/17 02:44:30;;;;;;;20.23;9.65;;;9.80;99.90;;;;;;4993771;28;20447;-69
2023/12/17 02:46:55;;;;;;;18.90;10.20;;;9.80;99.90;;;;;;4989081;28;20054;-69
2023/12/17 02:49:21;;;;;;;21.92;10.65;;;9.80;99.90;;;;;;4992188;28;20027;-70
2023/12/17 02:51:47;;;;;;;22.63;8.05;;;9.80;99.90;;;;;;4993250;28;20054;-66
2023/12/17 02:54:12;;;;;;;18.75;9.32;;;9.80;99.90;;;;;;4992735;28;20109;-67
2023/12/17 02:56:41;;;;;;;20.45;8.75;;;9.80;99.90;;;;;;4992858;28;20387;-68
2023/12/17 02:59:11;;;;;;;18.55;9.20;;;9.80;99.90;;;;;;4992122;28;20039;-70
2023/12/17 03:01:39;;;;;;;25.52;9.65;;;9.80;99.90;;;;;;4991684;28;20019;-66
2023/12/17 03:04:05;;;;;;;17.83;8.90;;;9.80;99.90;;;;;;4992712;28;20030;-70
2023/12/17 03:06:31;;;;;;;26.10;10.43;;;9.80;99.90;;;;;;4993147;28;20038;-70
2023/12/17 03:08:57;;;;;;;18.60;9.80;;;9.80;99.90;;;;;;4991819;28;20030;-72
2023/12/17 03:11:23;;;;;;;19.50;9.80;;;9.80;99.90;;;;;;4992572;28;20034;-71
2023/12/17 03:13:51;;;;;;;20.65;9.38;;;9.80;99.90;;;;;;4992005;28;20030;-69
2023/12/17 03:16:17;;;;;;;20.48;9.80;;;9.80;99.90;;;;;;4991415;28;20033;-69
2023/12/17 03:18:43;;;;;;;20.02;10.13;;;9.80;99.90;;;;;;4992752;28;20038;-69
2023/12/17 03:21:08;;;;;;;19.77;9.82;;;9.80;99.90;;;;;;4991058;28;20026;-68
2023/12/17 03:23:35;;;;;;;22.90;9.93;;;9.80;99.90;;;;;;4991973;28;20026;-68
2023/12/17 03:26:02;;;;;;;20.80;10.18;;;9.80;99.90;;;;;;5007010;28;20079;-70
2023/12/17 03:28:27;;;;;;;20.40;9.02;;;9.80;99.90;;;;;;4990643;28;20079;-69
2023/12/17 03:30:53;;;;;;;19.60;9.32;;;9.80;99.90;;;;;;4992541;28;20030;-69
2023/12/17 03:33:21;;;;;;;17.52;8.48;;;9.80;99.90;;;;;;4991756;28;20820;-69
2023/12/17 03:35:46;;;;;;;19.40;9.02;;;9.80;99.90;;;;;;4992273;28;20480;-68
2023/12/17 03:38:13;;;;;;;16.85;9.02;;;9.80;99.90;;;;;;4992056;28;20027;-70
2023/12/17 03:40:39;;;;;;;19.30;9.25;;;9.80;99.90;;;;;;4991914;28;20026;-68
2023/12/17 03:43:04;;;;;;;16.52;9.35;;;9.80;99.90;;;;;;4990518;28;20395;-69
2023/12/17 03:45:31;;;;;;;17.83;8.82;;;9.80;99.90;;;;;;4992269;28;20043;-72
2023/12/17 03:47:57;;;;;;;19.02;9.02;;;9.80;99.90;;;;;;4991602;28;20042;-72
2023/12/17 03:50:23;;;;;;;16.35;8.30;;;9.80;99.90;;;;;;4991732;28;20026;-72
2023/12/17 03:52:49;;;;;;;19.55;9.80;;;9.80;99.90;;;;;;4992396;28;20023;-71
2023/12/17 03:55:14;;;;;;;15.98;8.40;;;9.80;99.90;;;;;;4991570;28;20054;-68
2023/12/17 03:57:41;;;;;;;20.48;8.93;;;9.80;99.90;;;;;;4990026;28;20018;-69
2023/12/17 04:00:10;;;;;;;19.88;8.75;;;9.80;99.90;;;;;;4991787;28;20166;-68
2023/12/17 04:02:35;;;;;;;15.18;8.55;;;9.80;99.90;;;;;;4991180;28;20033;-69
2023/12/17 04:05:01;;;;;;;21.85;8.55;;;9.80;99.90;;;;;;4991854;28;20027;-69
2023/12/17 04:07:28;;;;;;;16.75;8.40;;;9.80;99.90;;;;;;4991812;28;20037;-69
2023/12/17 04:09:54;;;;;;;14.82;8.30;;;9.80;99.90;;;;;;4990975;28;20030;-69
2023/12/17 04:12:20;;;;;;;18.80;9.05;;;9.80;99.90;;;;;;4989606;28;20042;-68
2023/12/17 04:14:46;;;;;;;18.15;8.57;;;9.80;99.90;;;;;;4991019;28;20046;-70
2023/12/17 04:17:11;;;;;;;17.27;7.57;;;9.80;99.90;;;;;;4991593;28;20045;-69
2023/12/17 04:19:37;;;;;;;22.80;9.60;;;9.80;99.90;;;;;;4991423;28;20451;-69
2023/12/17 04:22:02;;;;;;;14.07;7.78;;;9.80;99.90;;;;;;4991306;28;20483;-69
2023/12/17 04:24:28;;;;;;;16.00;8.75;;;9.80;99.90;;;;;;4991194;28;20027;-69
2023/12/17 04:26:57;;;;;;;23.55;8.48;;;9.80;99.90;;;;;;4990852;28;20142;-69
2023/12/17 04:29:23;;;;;;;18.05;8.63;;;9.80;99.90;;;;;;4991410;28;20102;-70
2023/12/17 04:31:48;;;;;;;17.23;9.73;;;9.80;99.90;;;;;;4991832;28;20031;-69
2023/12/17 04:34:16;;;;;;;23.27;8.52;;;9.80;99.90;;;;;;4990802;28;20479;-67
2023/12/17 04:36:42;;;;;;;19.05;8.77;;;9.80;99.90;;;;;;4990493;28;20018;-68
2023/12/17 04:39:09;;;;;;;24.90;8.88;;;9.80;99.90;;;;;;4991272;28;20050;-69
2023/12/17 04:41:36;;;;;;;18.70;8.88;;;9.80;99.90;;;;;;4990127;28;20049;-69
2023/12/17 04:44:02;;;;;;;16.92;9.13;;;9.80;99.90;;;;;;4991127;28;20026;-71
2023/12/17 04:46:29;;;;;;;15.93;8.85;;;9.80;99.90;;;;;;4990201;28;20023;-71
2023/12/17 04:48:55;;;;;;;21.83;9.23;;;9.80;99.90;;;;;;4991325;28;20030;-70
2023/12/17 04:51:21;;;;;;;23.33;9.02;;;9.90;99.90;;;;;;4988725;28;20089;-70
2023/12/17 04:53:47;;;;;;;20.52;9.25;;;9.90;99.90;;;;;;4990908;28;20019;-68
2023/12/17 04:56:13;;;;;;;20.70;10.38;;;9.80;99.90;;;;;;4990350;28;20031;-69
2023/12/17 04:58:38;;;;;;;18.52;9.77;;;9.90;99.90;;;;;;5005244;28;20042;-69
2023/12/17 05:01:04;;;;;;;17.05;10.48;;;9.90;99.90;;;;;;4989811;28;20405;-70
2023/12/17 05:03:29;;;;;;;20.50;9.38;;;9.90;99.90;;;;;;4991626;28;20078;-71
2023/12/17 05:05:55;;;;;;;20.40;10.32;;;9.90;99.90;;;;;;4990522;28;20033;-71
2023/12/17 05:08:21;;;;;;;25.50;10.50;;;9.90;99.90;;;;;;4990909;28;20022;-68
2023/12/17 05:10:46;;;;;;;20.42;10.73;;;9.90;99.90;;;;;;4989168;28;20117;-68
2023/12/17 05:13:12;;;;;;;22.17;10.55;;;9.80;99.90;;;;;;4986791;28;20467;-69
2023/12/17 05:15:38;;;;;;;20.67;11.27;;;9.90;99.90;;;;;;4986715;28;20045;-68
2023/12/17 05:18:03;;;;;;;23.88;10.98;;;9.90;99.90;;;;;;4988483;28;20030;-68
2023/12/17 05:20:29;;;;;;;19.30;10.25;;;9.90;99.90;;;;;;4988664;28;20033;-67
2023/12/17 05:22:55;;;;;;;20.60;11.38;;;9.90;99.90;;;;;;4989388;28;20114;-69
2023/12/17 05:25:21;;;;;;;21.80;10.95;;;9.90;99.90;;;;;;4992080;28;20061;-70
2023/12/17 05:27:47;;;;;;;23.00;10.98;;;9.90;99.90;;;;;;4989747;28;20042;-69
2023/12/17 05:30:13;;;;;;;21.20;11.77;;;9.90;99.90;;;;;;4990885;28;20090;-70
2023/12/17 05:32:39;;;;;;;26.77;12.13;;;9.90;99.90;;;;;;4993715;28;20086;-67
2023/12/17 05:35:05;;;;;;;22.70;11.50;;;9.90;99.90;;;;;;4995286;28;20043;-66
2023/12/17 05:37:31;;;;;;;23.55;11.23;;;9.90;99.90;;;;;;4994406;28;20027;-68
2023/12/17 05:39:56;;;;;;;20.13;11.68;;;9.90;99.90;;;;;;4990933;28;20119;-69
2023/12/17 05:42:22;;;;;;;22.58;12.00;;;9.90;99.90;;;;;;4983628;28;20030;-68
2023/12/17 05:44:47;;;;;;;26.08;12.10;;;9.90;99.90;;;;;;4993889;28;20035;-70
2023/12/17 05:47:13;;;;;;;23.85;13.10;;;9.90;99.90;;;;;;4994626;28;20058;-68
2023/12/17 05:49:39;;;;;;;28.70;13.10;;;9.90;99.90;;;;;;4992788;28;20030;-66
2023/12/17 05:52:05;;;;;;;22.58;11.82;;;9.90;99.90;;;;;;4989555;28;20030;-67
2023/12/17 05:54:31;;;;;;;22.05;11.93;;;9.90;99.90;;;;;;4989805;28;20065;-69
2023/12/17 05:56:56;;;;;;;26.10;12.43;;;9.90;99.90;;;;;;4994009;28;20030;-69
2023/12/17 05:59:22;;;;;;;23.73;13.15;;;9.90;99.90;;;;;;4989742;28;20400;-67
2023/12/17 06:01:47;;;;;;;23.50;12.90;;;9.90;99.90;;;;;;4994345;28;20038;-68
2023/12/17 06:04:13;;;;;;;23.05;12.05;;;9.90;99.90;;;;;;4994594;28;20458;-68
2023/12/17 06:06:39;;;;;;;19.40;11.55;;;9.90;99.90;;;;;;4990190;28;20041;-71
2023/12/17 06:09:04;;;;;;;24.05;12.77;;;9.90;99.90;;;;;;4993990;28;20057;-69
2023/12/17 06:11:30;;;;;;;23.67;12.65;;;9.90;99.90;;;;;;4994142;28;20026;-66
2023/12/17 06:13:55;;;;;;;22.30;10.52;;;9.90;99.90;;;;;;4994520;28;20069;-69
2023/12/17 06:16:21;;;;;;;22.38;12.43;;;9.90;99.90;;;;;;4994192;28;20019;-68
2023/12/17 06:18:48;;;;;;;23.67;12.68;;;9.90;99.90;;;;;;4993707;28;20085;-68
2023/12/17 06:21:26;;;;;;;25.10;12.70;;;9.90;99.90;;;;;;4993937;28;20041;-68
2023/12/17 06:23:57;;;;;;;26.27;11.82;;;9.90;99.90;;;;;;4994561;28;20030;-70
2023/12/17 06:26:26;;;;;;;29.38;13.05;;;9.90;99.90;;;;;;4994163;28;20089;-66
2023/12/17 06:28:52;;;;;;;25.77;11.27;;;9.90;99.90;;;;;;4992960;28;20069;-70
2023/12/17 06:31:17;;;;;;;21.25;12.77;;;9.90;99.90;;;;;;4992718;28;20022;-70
2023/12/17 06:33:43;;;;;;;19.73;11.82;;;9.90;99.90;;;;;;4993940;28;20018;-70
2023/12/17 06:36:09;;;;;;;25.27;11.40;;;9.90;99.90;;;;;;4993656;28;20149;-69
2023/12/17 06:38:34;;;;;;;29.73;11.55;;;9.90;99.90;;;;;;4993854;28;20022;-68
2023/12/17 06:41:00;;;;;;;23.17;11.45;;;9.90;99.90;;;;;;4993396;28;20054;-71
2023/12/17 06:43:26;;;;;;;24.60;11.50;;;9.90;99.90;;;;;;5008747;28;20022;-67
2023/12/17 06:45:52;;;;;;;23.23;11.07;;;9.90;99.90;;;;;;4993619;28;20041;-70
2023/12/17 06:48:18;;;;;;;18.63;10.35;;;9.90;99.90;;;;;;4993337;28;20034;-70
2023/12/17 06:50:43;;;;;;;21.60;10.73;;;9.90;99.90;;;;;;4989614;28;20418;-69
2023/12/17 06:53:10;;;;;;;20.17;10.45;;;9.90;99.90;;;;;;4991275;28;20033;-69
2023/12/17 06:55:35;;;;;;;22.67;11.25;;;9.90;99.90;;;;;;4989937;28;20047;-67
2023/12/17 06:58:01;;;;;;;24.20;10.45;;;9.90;99.90;;;;;;4991284;28;20042;-68
2023/12/17 07:00:27;;;;;;;24.33;10.43;;;9.90;99.90;;;;;;4993485;28;20030;-68
2023/12/17 07:02:53;;;;;;;29.00;11.18;;;9.90;99.90;;;;;;4992321;28;20057;-68
2023/12/17 07:05:18;;;;;;;19.73;10.57;;;9.90;99.90;;;;;;4991468;28;20475;-68
2023/12/17 07:07:45;;;;;;;24.25;10.07;;;9.90;99.90;;;;;;4990108;28;20046;-67
2023/12/17 07:10:12;;;;;;;20.95;10.88;;;9.90;99.90;;;;;;4992057;28;20061;-67
2023/12/17 07:12:37;;;;;;;23.95;10.52;;;9.90;99.90;;;;;;4990650;28;20022;-71
2023/12/17 07:15:03;;;;;;;21.90;10.48;;;9.90;99.90;;;;;;4991858;28;20049;-67
2023/12/17 07:17:30;;;;;;;22.52;10.57;;;9.90;99.90;;;;;;4990639;28;20023;-68
2023/12/17 07:19:55;;;;;;;26.58;11.13;;;9.90;99.90;;;;;;4991729;28;20078;-67
2023/12/17 07:22:22;;;;;;;18.92;9.80;;;9.90;99.90;;;;;;4990402;28;20487;-69
2023/12/17 07:24:49;;;;;;;21.17;10.40;;;9.90;99.90;;;;;;4990918;28;20034;-67
2023/12/17 07:27:14;;;;;;;19.55;9.45;;;9.90;99.90;;;;;;4989286;28;20468;-65
2023/12/17 07:29:40;;;;;;;22.48;10.70;;;9.80;99.90;;;;;;4991274;28;20030;-68
2023/12/17 07:32:05;;;;;;;20.27;10.38;;;9.90;99.90;;;;;;4988988;28;20113;-68
2023/12/17 07:34:31;;;;;;;19.80;10.23;;;9.80;99.90;;;;;;4989977;28;20106;-69
2023/12/17 07:37:00;;;;;;;20.77;11.00;;;9.80;99.90;;;;;;4989352;28;20030;-70
2023/12/17 07:39:26;;;;;;;23.08;11.10;;;9.80;99.90;;;;;;4989043;28;20096;-68
2023/12/17 07:41:51;;;;;;;22.27;11.80;;;9.80;99.90;;;;;;4988240;28;20469;-68
2023/12/17 07:44:17;;;;;;;22.00;10.80;;;9.80;99.90;;;;;;4987577;28;20034;-67
2023/12/17 07:46:42;;;;;;;23.80;11.77;;;9.80;99.90;;;;;;4987330;28;20035;-67
2023/12/17 07:49:08;;;;;;;24.75;12.32;;;9.80;99.90;;;;;;4989584;28;20030;-67
2023/12/17 07:51:33;;;;;;;19.02;10.85;;;9.80;99.90;;;;;;4989053;28;20121;-68
2023/12/17 07:53:59;;;;;;;21.70;11.38;;;9.80;99.90;;;;;;4992266;28;20022;-69
2023/12/17 07:56:25;;;;;;;20.83;12.45;;;9.80;99.90;;;;;;4991280;28;20022;-67
2023/12/17 07:58:51;;;;;;;20.88;10.43;;;9.80;99.90;;;;;;4989394;28;20031;-66
2023/12/17 08:01:17;;;;;;;20.98;11.60;;;9.80;99.90;;;;;;4988968;28;20045;-66
2023/12/17 08:03:42;;;;;;;19.13;11.13;;;9.80;99.90;;;;;;4991216;28;20027;-66
2023/12/17 08:06:08;;;;;;;20.20;11.43;;;9.80;99.90;;;;;;4991125;28;20022;-67
2023/12/17 08:08:33;;;;;;;22.83;11.45;;;9.80;99.90;;;;;;4989990;28;20029;-68
2023/12/17 08:10:59;;;;;;;23.17;11.98;;;9.80;99.90;;;;;;4992404;28;20027;-68
2023/12/17 08:13:24;;;;;;;25.15;12.13;;;9.80;99.90;;;;;;4991822;28;20427;-69
2023/12/17 08:15:50;;;;;;;26.95;12.35;;;9.80;99.90;;;;;;4991789;28;20038;-69
2023/12/17 08:18:15;;;;;;;46.95;22.85;;;9.80;99.90;;;;;;4989028;28;20019;-67
2023/12/17 08:20:41;;;;;;;26.08;16.33;;;9.70;99.90;;;;;;4987803;28;20029;-69
2023/12/17 08:23:07;;;;;;;26.95;13.27;;;9.80;99.90;;;;;;4988277;28;20510;-68
2023/12/17 08:25:38;;;;;;;24.13;12.63;;;9.80;99.90;;;;;;4988917;28;20031;-66
2023/12/17 08:28:04;;;;;;;22.38;11.82;;;9.80;99.90;;;;;;4989305;28;20045;-67
2023/12/17 08:30:29;;;;;;;22.92;12.73;;;9.80;99.90;;;;;;4989401;28;20026;-68
2023/12/17 08:32:55;;;;;;;20.70;12.68;;;9.80;99.90;;;;;;4987537;28;20026;-67
2023/12/17 08:35:20;;;;;;;20.63;11.55;;;9.80;99.90;;;;;;4987967;28;20051;-68
2023/12/17 08:37:46;;;;;;;27.70;13.50;;;9.80;99.90;;;;;;4991141;28;20032;-70
2023/12/17 08:40:12;;;;;;;25.58;15.02;;;9.80;99.90;;;;;;4989035;28;20034;-66
2023/12/17 08:42:37;;;;;;;22.83;13.70;;;9.80;99.90;;;;;;4988968;28;20042;-67
2023/12/17 08:45:03;;;;;;;23.88;13.35;;;9.80;99.90;;;;;;4987212;28;20029;-67
2023/12/17 08:47:29;;;;;;;23.40;14.10;;;9.80;99.90;;;;;;4985999;28;20030;-69
2023/12/17 08:49:56;;;;;;;22.50;12.00;;;9.90;99.90;;;;;;4987741;28;20031;-71
2023/12/17 08:52:21;;;;;;;23.50;12.57;;;9.80;99.90;;;;;;4986344;28;20034;-66
2023/12/17 08:54:47;;;;;;;25.35;14.55;;;9.90;99.90;;;;;;4988151;28;20549;-67
2023/12/17 08:57:12;;;;;;;24.80;12.73;;;9.90;99.90;;;;;;4989719;28;20027;-67
2023/12/17 08:59:42;;;;;;;23.70;13.18;;;9.90;99.90;;;;;;4991356;28;20038;-67
2023/12/17 09:02:08;;;;;;;25.80;14.02;;;9.90;99.90;;;;;;4989921;28;20069;-69
2023/12/17 09:04:33;;;;;;;22.25;13.10;;;9.90;99.90;;;;;;4988698;28;20030;-68
2023/12/17 09:06:59;;;;;;;25.00;12.88;;;9.90;99.90;;;;;;4986427;28;20034;-69
2023/12/17 09:09:24;;;;;;;24.30;13.38;;;9.90;99.90;;;;;;4989306;28;20431;-70
2023/12/17 09:11:50;;;;;;;20.30;10.88;;;9.80;99.90;;;;;;4994548;28;20031;-67
2023/12/17 09:14:16;;;;;;;30.40;14.35;;;9.90;99.90;;;;;;4992998;28;20043;-66
2023/12/17 09:16:41;;;;;;;38.28;19.30;;;9.80;99.90;;;;;;4988836;28;20038;-69
2023/12/17 09:19:07;;;;;;;26.10;14.57;;;9.90;99.90;;;;;;4994051;28;20503;-67
2023/12/17 09:21:33;;;;;;;20.15;13.10;;;9.90;99.90;;;;;;4993411;28;20054;-68
2023/12/17 09:23:58;;;;;;;23.95;13.55;;;9.90;99.90;;;;;;4989376;28;20039;-69
2023/12/17 09:26:25;;;;;;;20.48;13.23;;;9.90;99.90;;;;;;4993087;28;20054;-66
2023/12/17 09:28:51;;;;;;;19.92;12.18;;;9.90;99.90;;;;;;4989292;28;20033;-66
2023/12/17 09:31:16;;;;;;;20.50;13.45;;;9.90;99.90;;;;;;4991272;28;20143;-67
2023/12/17 09:33:42;;;;;;;22.92;12.63;;;9.90;99.90;;;;;;4990444;28;20749;-69
2023/12/17 09:36:08;;;;;;;23.05;12.63;;;9.90;99.90;;;;;;4994675;28;20072;-67
2023/12/17 09:38:33;;;;;;;21.63;12.88;;;9.90;99.90;;;;;;4993614;28;20041;-67
2023/12/17 09:41:00;;;;;;;26.40;12.52;;;9.90;99.90;;;;;;4994644;28;20086;-68
2023/12/17 09:43:26;;;;;;;21.63;12.77;;;9.90;99.90;;;;;;4994237;28;20030;-67
2023/12/17 09:45:52;;;;;;;22.42;12.50;;;9.90;99.90;;;;;;4994252;28;20019;-67
2023/12/17 09:48:18;;;;;;;23.52;12.77;;;9.90;99.90;;;;;;4994900;28;20094;-66
2023/12/17 09:50:44;;;;;;;23.77;12.68;;;9.90;99.90;;;;;;4994193;28;20069;-68
2023/12/17 09:53:10;;;;;;;19.88;11.70;;;9.90;99.90;;;;;;4992941;28;20033;-69
2023/12/17 09:55:36;;;;;;;25.23;11.60;;;9.90;99.90;;;;;;4990421;28;20038;-68
2023/12/17 09:58:04;;;;;;;20.95;11.07;;;9.90;99.90;;;;;;4993917;28;20030;-66
2023/12/17 10:00:30;;;;;;;21.20;10.80;;;9.90;99.90;;;;;;4993865;28;20051;-68
2023/12/17 10:03:03;;;;;;;18.65;9.77;;;10.00;99.90;;;;;;4991370;28;20090;-67
2023/12/17 10:05:28;;;;;;;21.65;10.80;;;9.90;99.90;;;;;;4991721;28;20027;-67
2023/12/17 10:07:56;;;;;;;20.38;10.05;;;9.90;99.90;;;;;;4982832;28;20471;-69
2023/12/17 10:10:22;;;;;;;19.27;10.30;;;10.00;99.90;;;;;;4987758;28;20030;-68
2023/12/17 10:12:48;;;;;;;23.58;11.23;;;9.90;99.90;;;;;;4992120;28;20034;-68
2023/12/17 10:15:13;;;;;;;23.27;12.15;;;10.00;99.90;;;;;;4993328;28;20042;-67
2023/12/17 10:17:40;;;;;;;24.67;11.93;;;10.00;99.90;;;;;;4994161;28;20031;-67
2023/12/17 10:20:07;;;;;;;17.92;10.32;;;10.00;99.90;;;;;;4994007;28;20035;-66
2023/12/17 10:22:32;;;;;;;24.88;13.38;;;10.10;99.90;;;;;;4991130;28;20199;-66
2023/12/17 10:24:58;;;;;;;21.10;10.18;;;10.10;99.90;;;;;;4991382;28;20030;-66
2023/12/17 10:27:24;;;;;;;17.35;9.27;;;10.10;99.90;;;;;;4985106;28;20043;-69
2023/12/17 10:29:52;;;;;;;17.23;8.45;;;10.10;99.90;;;;;;4988505;28;20022;-64
2023/12/17 10:32:24;;;;;;;16.27;9.13;;;10.10;99.90;;;;;;4993338;28;20027;-67
2023/12/17 10:34:51;;;;;;;15.10;7.97;;;10.10;99.90;;;;;;4993671;28;20127;-66
2023/12/17 10:37:21;;;;;;;15.30;7.28;;;10.10;99.90;;;;;;4994069;28;20101;-68
2023/12/17 10:39:51;;;;;;;20.40;8.85;;;10.10;99.90;;;;;;4989483;28;20038;-67
2023/12/17 10:42:18;;;;;;;14.32;7.32;;;10.10;99.90;;;;;;4989025;28;20037;-68
2023/12/17 10:44:48;;;;;;;18.63;8.32;;;10.10;99.90;;;;;;4992422;28;20086;-66
2023/12/17 10:47:23;;;;;;;15.63;8.18;;;10.10;99.90;;;;;;4993827;28;20026;-66
2023/12/17 10:49:49;;;;;;;17.02;7.85;;;10.10;99.90;;;;;;4991900;28;20125;-68
2023/12/17 10:52:15;;;;;;;17.17;8.77;;;10.10;99.90;;;;;;4992727;28;20061;-67
2023/12/17 10:54:41;;;;;;;17.13;9.18;;;10.20;99.90;;;;;;4993807;28;20027;-67
2023/12/17 10:57:17;;;;;;;19.33;9.38;;;10.20;99.90;;;;;;4993327;28;20053;-69
2023/12/17 10:59:45;;;;;;;20.15;10.80;;;10.20;99.90;;;;;;4991305;28;20046;-66
2023/12/17 11:02:13;;;;;;;25.73;12.25;;;10.30;99.90;;;;;;4989811;28;20492;-67
2023/12/17 11:04:45;;;;;;;23.70;11.68;;;10.20;99.90;;;;;;4988850;28;20035;-66
2023/12/17 11:07:15;;;;;;;23.80;10.00;;;10.30;99.90;;;;;;4991211;28;20586;-67
2023/12/17 11:09:41;;;;;;;25.27;13.52;;;10.30;99.90;;;;;;4985822;28;20037;-67
2023/12/17 11:12:07;;;;;;;28.92;13.25;;;10.40;99.90;;;;;;4984874;28;20039;-66
2023/12/17 11:14:33;;;;;;;26.75;14.00;;;10.30;99.90;;;;;;4987757;28;20050;-68
2023/12/17 11:17:00;;;;;;;31.05;13.63;;;10.40;99.90;;;;;;4990426;28;20141;-67
2023/12/17 11:19:26;;;;;;;27.65;15.30;;;10.40;99.90;;;;;;4990955;28;20121;-69
2023/12/17 11:21:51;;;;;;;27.92;15.35;;;10.40;99.90;;;;;;4992462;28;20552;-66
2023/12/17 11:24:19;;;;;;;29.15;15.32;;;10.50;99.90;;;;;;4991420;28;20027;-67
2023/12/17 11:26:44;;;;;;;30.30;16.48;;;10.50;99.90;;;;;;4992810;28;20046;-66
2023/12/17 11:29:37;;;;;;;32.22;16.38;;;10.50;99.90;;;;;;4992880;28;20027;-66
2023/12/17 11:32:04;;;;;;;32.35;15.85;;;10.50;99.90;;;;;;4992894;28;20022;-67
2023/12/17 11:34:31;;;;;;;31.02;16.27;;;10.50;99.90;;;;;;4991608;28;20047;-68
2023/12/17 11:36:58;;;;;;;38.80;17.88;;;10.50;99.90;;;;;;4992198;28;20070;-68
2023/12/17 11:39:29;;;;;;;33.85;17.13;;;10.50;99.90;;;;;;4992995;28;20050;-69
2023/12/17 11:41:55;;;;;;;31.60;14.77;;;10.60;99.90;;;;;;4992093;28;20026;-66
2023/12/17 11:44:27;;;;;;;31.23;15.93;;;10.70;99.90;;;;;;5077857;28;20444;-67
2023/12/17 11:46:53;;;;;;;32.22;15.82;;;10.70;99.90;;;;;;5078521;28;20037;-67
2023/12/17 11:49:23;;;;;;;34.72;15.25;;;10.70;99.90;;;;;;5078648;28;20032;-66
2023/12/17 11:51:50;;;;;;;33.47;15.45;;;10.60;99.90;;;;;;5076326;28;20028;-66
2023/12/17 11:54:23;;;;;;;31.15;15.23;;;10.50;99.90;;;;;;5077717;28;20025;-65
2023/12/17 11:56:49;;;;;;;30.90;15.30;;;10.50;99.90;;;;;;5078294;28;20033;-65
2023/12/17 11:59:30;;;;;;;36.08;16.50;;;10.50;99.90;;;;;;5078181;28;20029;-68
2023/12/17 12:01:55;;;;;;;32.45;14.65;;;10.50;99.90;;;;;;5074760;28;20059;-68
2023/12/17 12:04:22;;;;;;;35.03;14.35;;;10.50;99.90;;;;;;5074108;28;20481;-68
2023/12/17 12:06:53;;;;;;;31.30;14.50;;;10.50;99.90;;;;;;5074360;28;20025;-66
2023/12/17 12:09:19;;;;;;;32.88;16.27;;;10.50;99.90;;;;;;5076631;28;20020;-65
2023/12/17 12:11:45;;;;;;;31.83;15.13;;;10.50;99.90;;;;;;5076393;28;20039;-66
2023/12/17 12:14:11;;;;;;;34.45;16.52;;;10.50;99.90;;;;;;5076536;28;20024;-66
2023/12/17 12:16:39;;;;;;;33.53;16.10;;;10.50;99.90;;;;;;5077538;28;20023;-66
2023/12/17 12:19:05;;;;;;;35.20;17.80;;;10.50;99.90;;;;;;5076882;28;20473;-67
2023/12/17 12:21:30;;;;;;;36.83;17.77;;;10.50;99.90;;;;;;5077476;28;20032;-69
2023/12/17 12:23:57;;;;;;;31.48;16.17;;;10.60;99.90;;;;;;5077689;28;20041;-66
2023/12/17 12:26:24;;;;;;;36.47;17.38;;;10.60;99.90;;;;;;5077547;28;20021;-65
2023/12/17 12:29:06;;;;;;;34.45;16.63;;;10.60;99.90;;;;;;5075893;28;20486;-68
2023/12/17 12:31:32;;;;;;;35.13;17.70;;;10.70;99.90;;;;;;5073103;28;20029;-68
2023/12/17 12:34:00;;;;;;;34.72;17.40;;;10.70;99.90;;;;;;5075002;28;20036;-66